sensor_id;sensor_type;location;lat;lon;timestamp;pressure;altitude;pressure_sealevel;temperature;humidity
67434;BME280;54305;47.950;6.572;2023-04-07T00:00:52;94286.97;;;6.10;100.00
67434;BME280;54305;47.950;6.572;2023-04-07T00:03:18;94280.97;;;6.10;100.00
67434;BME280;54305;47.950;6.572;2023-04-07T00:05:43;94273.91;;;6.21;100.00
67434;BME280;54305;47.950;6.572;2023-04-07T00:08:08;94278.66;;;6.16;100.00
67434;BME280;54305;47.950;6.572;2023-04-07T00:10:34;94275.81;;;6.10;100.00
67434;BME280;54305;47.950;6.572;2023-04-07T00:12:59;94280.19;;;6.09;100.00
67434;BME280;54305;47.950;6.572;2023-04-07T00:15:25;94289.84;;;6.17;100.00
67434;BME280;54305;47.950;6.572;2023-04-07T00:17:50;94282.63;;;6.20;100.00
67434;BME280;54305;47.950;6.572;2023-04-07T00:20:16;94284.09;;;6.13;100.00
67434;BME280;54305;47.950;6.572;2023-04-07T00:22:41;94270.63;;;6.10;100.00
67434;BME280;54305;47.950;6.572;2023-04-07T00:25:07;94275.25;;;6.16;100.00
67434;BME280;54305;47.950;6.572;2023-04-07T00:27:32;94275.00;;;6.19;100.00
67434;BME280;54305;47.950;6.572;2023-04-07T00:29:57;94259.22;;;6.22;100.00
67434;BME280;54305;47.950;6.572;2023-04-07T00:32:22;94258.13;;;6.15;100.00
67434;BME280;54305;47.950;6.572;2023-04-07T00:34:48;94257.03;;;6.17;100.00
67434;BME280;54305;47.950;6.572;2023-04-07T00:37:13;94249.16;;;6.09;100.00
67434;BME280;54305;47.950;6.572;2023-04-07T00:39:38;94249.94;;;6.10;100.00
67434;BME280;54305;47.950;6.572;2023-04-07T00:42:04;94258.13;;;6.15;100.00
67434;BME280;54305;47.950;6.572;2023-04-07T00:44:31;94255.94;;;6.20;100.00
67434;BME280;54305;47.950;6.572;2023-04-07T00:46:56;94259.19;;;6.12;100.00
67434;BME280;54305;47.950;6.572;2023-04-07T00:49:22;94259.88;;;6.05;100.00
67434;BME280;54305;47.950;6.572;2023-04-07T00:51:48;94251.56;;;6.11;100.00
67434;BME280;54305;47.950;6.572;2023-04-07T00:54:13;94246.16;;;6.14;100.00
67434;BME280;54305;47.950;6.572;2023-04-07T00:56:38;94239.34;;;6.13;100.00
67434;BME280;54305;47.950;6.572;2023-04-07T00:59:04;94231.19;;;6.08;100.00
67434;BME280;54305;47.950;6.572;2023-04-07T01:01:30;94226.28;;;6.05;100.00
67434;BME280;54305;47.950;6.572;2023-04-07T01:04:09;94217.72;;;6.14;100.00
67434;BME280;54305;47.950;6.572;2023-04-07T01:06:38;94193.34;;;6.16;100.00
67434;BME280;54305;47.950;6.572;2023-04-07T01:09:06;94197.69;;;6.16;100.00
67434;BME280;54305;47.950;6.572;2023-04-07T01:14:00;94181.13;;;6.09;100.00
67434;BME280;54305;47.950;6.572;2023-04-07T01:16:26;94177.03;;;5.97;100.00
67434;BME280;54305;47.950;6.572;2023-04-07T01:21:36;94172.44;;;5.91;100.00
67434;BME280;54305;47.950;6.572;2023-04-07T01:26:38;94165.38;;;5.93;100.00
67434;BME280;54305;47.950;6.572;2023-04-07T01:31:29;94155.97;;;5.92;100.00
67434;BME280;54305;47.950;6.572;2023-04-07T01:33:56;94159.50;;;5.91;100.00
67434;BME280;54305;47.950;6.572;2023-04-07T01:36:23;94162.09;;;5.91;100.00
67434;BME280;54305;47.950;6.572;2023-04-07T01:38:52;94157.22;;;5.88;100.00
67434;BME280;54305;47.950;6.572;2023-04-07T01:41:17;94158.31;;;5.85;100.00
67434;BME280;54305;47.950;6.572;2023-04-07T01:43:43;94150.69;;;5.84;100.00
67434;BME280;54305;47.950;6.572;2023-04-07T01:46:09;94138.13;;;5.79;100.00
67434;BME280;54305;47.950;6.572;2023-04-07T01:48:34;94138.03;;;5.81;100.00
67434;BME280;54305;47.950;6.572;2023-04-07T01:51:02;94136.28;;;5.81;100.00
67434;BME280;54305;47.950;6.572;2023-04-07T01:53:28;94136.81;;;5.85;100.00
67434;BME280;54305;47.950;6.572;2023-04-07T01:55:54;94150.38;;;6.06;100.00
67434;BME280;54305;47.950;6.572;2023-04-07T01:58:19;94137.84;;;6.11;100.00
67434;BME280;54305;47.950;6.572;2023-04-07T02:00:44;94147.50;;;6.09;100.00
67434;BME280;54305;47.950;6.572;2023-04-07T02:03:12;94142.50;;;5.98;100.00
67434;BME280;54305;47.950;6.572;2023-04-07T02:05:44;94151.19;;;5.97;100.00
67434;BME280;54305;47.950;6.572;2023-04-07T02:08:11;94143.88;;;6.02;100.00
67434;BME280;54305;47.950;6.572;2023-04-07T02:10:40;94148.75;;;6.05;100.00
67434;BME280;54305;47.950;6.572;2023-04-07T02:13:07;94144.94;;;6.09;100.00
67434;BME280;54305;47.950;6.572;2023-04-07T02:15:33;94145.31;;;6.14;100.00
67434;BME280;54305;47.950;6.572;2023-04-07T02:17:58;94146.03;;;6.06;100.00
67434;BME280;54305;47.950;6.572;2023-04-07T02:20:24;94143.56;;;6.05;100.00
67434;BME280;54305;47.950;6.572;2023-04-07T02:22:50;94141.16;;;5.94;100.00
67434;BME280;54305;47.950;6.572;2023-04-07T02:25:25;94147.69;;;5.88;100.00
67434;BME280;54305;47.950;6.572;2023-04-07T02:27:51;94144.69;;;5.93;100.00
67434;BME280;54305;47.950;6.572;2023-04-07T02:30:17;94145.22;;;5.96;100.00
67434;BME280;54305;47.950;6.572;2023-04-07T02:32:43;94144.69;;;5.93;100.00
67434;BME280;54305;47.950;6.572;2023-04-07T02:35:08;94141.72;;;5.88;100.00
67434;BME280;54305;47.950;6.572;2023-04-07T02:37:34;94140.59;;;5.81;100.00
67434;BME280;54305;47.950;6.572;2023-04-07T02:39:59;94140.59;;;5.81;100.00
67434;BME280;54305;47.950;6.572;2023-04-07T02:42:24;94134.34;;;5.83;100.00
67434;BME280;54305;47.950;6.572;2023-04-07T02:44:50;94129.19;;;5.93;100.00
67434;BME280;54305;47.950;6.572;2023-04-07T02:47:16;94129.72;;;5.96;100.00
67434;BME280;54305;47.950;6.572;2023-04-07T02:49:41;94132.56;;;5.74;100.00
67434;BME280;54305;47.950;6.572;2023-04-07T02:52:06;94124.56;;;5.49;100.00
67434;BME280;54305;47.950;6.572;2023-04-07T02:54:32;94136.25;;;5.53;100.00
67434;BME280;54305;47.950;6.572;2023-04-07T02:56:57;94132.16;;;5.41;100.00
67434;BME280;54305;47.950;6.572;2023-04-07T02:59:22;94134.47;;;5.53;100.00
67434;BME280;54305;47.950;6.572;2023-04-07T03:01:47;94133.25;;;5.67;100.00
67434;BME280;54305;47.950;6.572;2023-04-07T03:04:13;94137.03;;;5.63;100.00
67434;BME280;54305;47.950;6.572;2023-04-07T03:06:38;94137.75;;;5.65;100.00
67434;BME280;54305;47.950;6.572;2023-04-07T03:09:03;94141.16;;;5.56;100.00
67434;BME280;54305;47.950;6.572;2023-04-07T03:11:28;94137.50;;;5.49;100.00
67434;BME280;54305;47.950;6.572;2023-04-07T03:13:54;94138.41;;;5.48;100.00
67434;BME280;54305;47.950;6.572;2023-04-07T03:16:19;94142.75;;;5.38;100.00
67434;BME280;54305;47.950;6.572;2023-04-07T03:18:44;94150.63;;;5.27;100.00
67434;BME280;54305;47.950;6.572;2023-04-07T03:21:11;94150.47;;;5.19;100.00
67434;BME280;54305;47.950;6.572;2023-04-07T03:23:37;94157.44;;;5.18;100.00
67434;BME280;54305;47.950;6.572;2023-04-07T03:26:02;94165.97;;;5.19;100.00
67434;BME280;54305;47.950;6.572;2023-04-07T03:28:27;94170.97;;;5.01;100.00
67434;BME280;54305;47.950;6.572;2023-04-07T03:30:52;94178.72;;;4.62;100.00
67434;BME280;54305;47.950;6.572;2023-04-07T03:33:18;94167.91;;;4.38;100.00
67434;BME280;54305;47.950;6.572;2023-04-07T03:35:43;94183.59;;;4.35;100.00
67434;BME280;54305;47.950;6.572;2023-04-07T03:38:08;94167.03;;;4.07;100.00
67434;BME280;54305;47.950;6.572;2023-04-07T03:40:33;94168.88;;;3.96;100.00
67434;BME280;54305;47.950;6.572;2023-04-07T03:42:59;94167.66;;;3.79;100.00
67434;BME280;54305;47.950;6.572;2023-04-07T03:45:25;94166.03;;;3.78;100.00
67434;BME280;54305;47.950;6.572;2023-04-07T03:47:50;94162.75;;;3.76;100.00
67434;BME280;54305;47.950;6.572;2023-04-07T03:50:15;94162.44;;;3.70;100.00
67434;BME280;54305;47.950;6.572;2023-04-07T03:52:41;94153.84;;;3.80;100.00
67434;BME280;54305;47.950;6.572;2023-04-07T03:55:06;94152.03;;;3.92;100.00
67434;BME280;54305;47.950;6.572;2023-04-07T03:57:32;94152.59;;;3.95;100.00
67434;BME280;54305;47.950;6.572;2023-04-07T03:59:57;94148.56;;;4.02;100.00
67434;BME280;54305;47.950;6.572;2023-04-07T04:02:22;94150.50;;;4.10;100.00
67434;BME280;54305;47.950;6.572;2023-04-07T04:04:48;94147.41;;;4.16;100.00
67434;BME280;54305;47.950;6.572;2023-04-07T04:07:13;94146.78;;;4.03;100.00
67434;BME280;54305;47.950;6.572;2023-04-07T04:09:38;94145.59;;;4.07;100.00
67434;BME280;54305;47.950;6.572;2023-04-07T04:12:04;94143.97;;;4.06;100.00
67434;BME280;54305;47.950;6.572;2023-04-07T04:14:29;94145.28;;;4.21;100.00
67434;BME280;54305;47.950;6.572;2023-04-07T04:16:54;94138.94;;;4.25;100.00
67434;BME280;54305;47.950;6.572;2023-04-07T04:19:20;94138.16;;;4.34;100.00
67434;BME280;54305;47.950;6.572;2023-04-07T04:21:45;94138.16;;;4.34;100.00
67434;BME280;54305;47.950;6.572;2023-04-07T04:24:10;94135.47;;;4.35;100.00
67434;BME280;54305;47.950;6.572;2023-04-07T04:26:36;94135.06;;;4.40;100.00
67434;BME280;54305;47.950;6.572;2023-04-07T04:29:01;94137.09;;;4.46;100.00
67434;BME280;54305;47.950;6.572;2023-04-07T04:31:27;94138.06;;;4.45;100.00
67434;BME280;54305;47.950;6.572;2023-04-07T04:33:52;94134.72;;;4.54;100.00
67434;BME280;54305;47.950;6.572;2023-04-07T04:36:17;94142.03;;;4.58;100.00
67434;BME280;54305;47.950;6.572;2023-04-07T04:38:43;94139.88;;;4.54;100.00
67434;BME280;54305;47.950;6.572;2023-04-07T04:41:08;94139.16;;;4.52;100.00
67434;BME280;54305;47.950;6.572;2023-04-07T04:43:33;94139.97;;;4.43;100.00
67434;BME280;54305;47.950;6.572;2023-04-07T04:45:58;94137.09;;;4.46;100.00
67434;BME280;54305;47.950;6.572;2023-04-07T04:48:24;94146.47;;;4.47;100.00
67434;BME280;54305;47.950;6.572;2023-04-07T04:50:49;94147.41;;;4.46;100.00
67434;BME280;54305;47.950;6.572;2023-04-07T04:53:14;94153.94;;;4.40;100.00
67434;BME280;54305;47.950;6.572;2023-04-07T04:55:39;94158.00;;;4.43;100.00
67434;BME280;54305;47.950;6.572;2023-04-07T04:58:06;94153.31;;;4.27;100.00
67434;BME280;54305;47.950;6.572;2023-04-07T05:00:32;94157.41;;;4.30;100.00
67434;BME280;54305;47.950;6.572;2023-04-07T05:02:57;94157.63;;;4.27;100.00
67434;BME280;54305;47.950;6.572;2023-04-07T05:05:22;94158.59;;;4.26;100.00
67434;BME280;54305;47.950;6.572;2023-04-07T05:07:48;94159.75;;;4.12;100.00
67434;BME280;54305;47.950;6.572;2023-04-07T05:10:13;94162.69;;;4.08;100.00
67434;BME280;54305;47.950;6.572;2023-04-07T05:12:38;94164.34;;;4.09;100.00
67434;BME280;54305;47.950;6.572;2023-04-07T05:15:04;94154.41;;;4.04;100.00
67434;BME280;54305;47.950;6.572;2023-04-07T05:17:29;94162.00;;;4.06;100.00
67434;BME280;54305;47.950;6.572;2023-04-07T05:19:54;94161.38;;;4.13;100.00
67434;BME280;54305;47.950;6.572;2023-04-07T05:22:20;94163.47;;;3.99;100.00
67434;BME280;54305;47.950;6.572;2023-04-07T05:24:45;94155.59;;;4.00;100.00
67434;BME280;54305;47.950;6.572;2023-04-07T05:27:10;94154.59;;;3.92;100.00
67434;BME280;54305;47.950;6.572;2023-04-07T05:29:35;94145.75;;;3.85;100.00
67434;BME280;54305;47.950;6.572;2023-04-07T05:32:01;94151.59;;;3.87;100.00
67434;BME280;54305;47.950;6.572;2023-04-07T05:34:26;94147.06;;;3.79;100.00
67434;BME280;54305;47.950;6.572;2023-04-07T05:36:52;94139.47;;;3.78;100.00
67434;BME280;54305;47.950;6.572;2023-04-07T05:39:17;94146.50;;;3.76;100.00
67434;BME280;54305;47.950;6.572;2023-04-07T05:41:42;94137.19;;;3.64;100.00
67434;BME280;54305;47.950;6.572;2023-04-07T05:44:08;94147.22;;;3.46;100.00
67434;BME280;54305;47.950;6.572;2023-04-07T05:46:33;94142.19;;;3.45;100.00
67434;BME280;54305;47.950;6.572;2023-04-07T05:48:58;94149.75;;;3.37;100.00
67434;BME280;54305;47.950;6.572;2023-04-07T05:51:23;94152.66;;;3.32;100.00
67434;BME280;54305;47.950;6.572;2023-04-07T05:53:50;94145.81;;;3.22;100.00
67434;BME280;54305;47.950;6.572;2023-04-07T05:56:15;94151.19;;;3.19;100.00
67434;BME280;54305;47.950;6.572;2023-04-07T05:58:40;94152.09;;;3.29;100.00
67434;BME280;54305;47.950;6.572;2023-04-07T06:01:06;94150.38;;;3.18;100.00
67434;BME280;54305;47.950;6.572;2023-04-07T06:03:31;94147.13;;;3.16;100.00
67434;BME280;54305;47.950;6.572;2023-04-07T06:05:56;94140.28;;;2.95;100.00
67434;BME280;54305;47.950;6.572;2023-04-07T06:08:22;94143.34;;;2.89;100.00
67434;BME280;54305;47.950;6.572;2023-04-07T06:10:47;94143.78;;;2.83;100.00
67434;BME280;54305;47.950;6.572;2023-04-07T06:13:13;94142.44;;;2.79;100.00
67434;BME280;54305;47.950;6.572;2023-04-07T06:15:38;94147.34;;;2.60;100.00
67434;BME280;54305;47.950;6.572;2023-04-07T06:18:03;94148.31;;;2.59;100.00
67434;BME280;54305;47.950;6.572;2023-04-07T06:20:28;94141.81;;;2.75;100.00
67434;BME280;54305;47.950;6.572;2023-04-07T06:22:54;94148.75;;;2.64;100.00
67434;BME280;54305;47.950;6.572;2023-04-07T06:25:19;94148.50;;;2.67;100.00
67434;BME280;54305;47.950;6.572;2023-04-07T06:27:45;94148.75;;;2.64;100.00
67434;BME280;54305;47.950;6.572;2023-04-07T06:30:11;94150.97;;;2.57;100.00
67434;BME280;54305;47.950;6.572;2023-04-07T06:32:36;94154.59;;;2.55;100.00
67434;BME280;54305;47.950;6.572;2023-04-07T06:35:01;94159.94;;;2.63;100.00
67434;BME280;54305;47.950;6.572;2023-04-07T06:37:27;94152.50;;;2.60;100.00
67434;BME280;54305;47.950;6.572;2023-04-07T06:39:52;94154.34;;;2.80;100.00
67434;BME280;54305;47.950;6.572;2023-04-07T06:42:17;94146.84;;;2.88;100.00
67434;BME280;54305;47.950;6.572;2023-04-07T06:44:43;94154.06;;;2.83;100.00
67434;BME280;54305;47.950;6.572;2023-04-07T06:47:08;94145.22;;;2.76;100.00
67434;BME280;54305;47.950;6.572;2023-04-07T06:49:34;94156.44;;;2.75;100.00
67434;BME280;54305;47.950;6.572;2023-04-07T06:51:59;94154.56;;;2.77;100.00
67434;BME280;54305;47.950;6.572;2023-04-07T06:54:25;94150.34;;;2.87;100.00
67434;BME280;54305;47.950;6.572;2023-04-07T06:56:50;94144.25;;;2.99;100.00
67434;BME280;54305;47.950;6.572;2023-04-07T06:59:15;94140.47;;;3.14;100.00
67434;BME280;54305;47.950;6.572;2023-04-07T07:01:40;94146.28;;;3.16;100.00
67434;BME280;54305;47.950;6.572;2023-04-07T07:04:07;94145.16;;;3.09;100.00
67434;BME280;54305;47.950;6.572;2023-04-07T07:06:32;94153.38;;;2.92;100.00
67434;BME280;54305;47.950;6.572;2023-04-07T07:08:58;94145.75;;;3.01;100.00
67434;BME280;54305;47.950;6.572;2023-04-07T07:11:24;94153.53;;;3.11;100.00
67434;BME280;54305;47.950;6.572;2023-04-07T07:13:50;94161.53;;;2.97;100.00
67434;BME280;54305;47.950;6.572;2023-04-07T07:16:15;94155.03;;;2.93;100.00
67434;BME280;54305;47.950;6.572;2023-04-07T07:18:40;94154.53;;;2.99;100.00
67434;BME280;54305;47.950;6.572;2023-04-07T07:21:06;94152.06;;;2.97;100.00
67434;BME280;54305;47.950;6.572;2023-04-07T07:23:32;94157.56;;;3.04;100.00
67434;BME280;54305;47.950;6.572;2023-04-07T07:25:58;94159.78;;;2.97;100.00
67434;BME280;54305;47.950;6.572;2023-04-07T07:28:23;94165.06;;;2.85;100.00
67434;BME280;54305;47.950;6.572;2023-04-07T07:30:48;94162.75;;;2.93;100.00
67434;BME280;54305;47.950;6.572;2023-04-07T07:33:13;94170.31;;;2.94;100.00
67434;BME280;54305;47.950;6.572;2023-04-07T07:35:39;94163.03;;;2.99;100.00
67434;BME280;54305;47.950;6.572;2023-04-07T07:38:04;94171.47;;;3.01;100.00
67434;BME280;54305;47.950;6.572;2023-04-07T07:40:30;94170.38;;;3.15;100.00
67434;BME280;54305;47.950;6.572;2023-04-07T07:42:55;94175.97;;;3.20;100.00
67434;BME280;54305;47.950;6.572;2023-04-07T07:45:20;94178.06;;;3.26;100.00
67434;BME280;54305;47.950;6.572;2023-04-07T07:47:46;94183.31;;;3.35;100.00
67434;BME280;54305;47.950;6.572;2023-04-07T07:50:11;94185.94;;;3.45;100.00
67434;BME280;54305;47.950;6.572;2023-04-07T07:52:36;94189.69;;;3.52;100.00
67434;BME280;54305;47.950;6.572;2023-04-07T07:55:01;94184.03;;;3.58;100.00
67434;BME280;54305;47.950;6.572;2023-04-07T07:57:27;94189.50;;;3.64;100.00
67434;BME280;54305;47.950;6.572;2023-04-07T07:59:52;94191.69;;;3.69;100.00
67434;BME280;54305;47.950;6.572;2023-04-07T08:02:17;94197.81;;;3.68;100.00
67434;BME280;54305;47.950;6.572;2023-04-07T08:04:43;94195.16;;;3.58;100.00
67434;BME280;54305;47.950;6.572;2023-04-07T08:07:08;94205.75;;;3.65;100.00
67434;BME280;54305;47.950;6.572;2023-04-07T08:09:36;94209.69;;;3.80;100.00
67434;BME280;54305;47.950;6.572;2023-04-07T08:12:01;94205.44;;;3.90;100.00
67434;BME280;54305;47.950;6.572;2023-04-07T08:14:27;94208.47;;;3.95;100.00
67434;BME280;54305;47.950;6.572;2023-04-07T08:16:52;94210.28;;;4.04;100.00
67434;BME280;54305;47.950;6.572;2023-04-07T08:19:17;94207.19;;;4.10;100.00
67434;BME280;54305;47.950;6.572;2023-04-07T08:21:43;94204.78;;;4.18;100.00
67434;BME280;54305;47.950;6.572;2023-04-07T08:24:08;94212.47;;;4.29;100.00
67434;BME280;54305;47.950;6.572;2023-04-07T08:26:33;94210.06;;;4.37;100.00
67434;BME280;54305;47.950;6.572;2023-04-07T08:28:59;94221.44;;;4.34;100.00
67434;BME280;54305;47.950;6.572;2023-04-07T08:31:24;94224.16;;;4.33;100.00
67434;BME280;54305;47.950;6.572;2023-04-07T08:33:50;94221.06;;;4.39;100.00
67434;BME280;54305;47.950;6.572;2023-04-07T08:36:22;94233.03;;;3.99;100.00
67434;BME280;54305;47.950;6.572;2023-04-07T08:38:47;94235.56;;;3.47;100.00
67434;BME280;54305;47.950;6.572;2023-04-07T08:41:15;94248.09;;;3.40;100.00
67434;BME280;54305;47.950;6.572;2023-04-07T08:43:41;94252.00;;;3.24;100.00
67434;BME280;54305;47.950;6.572;2023-04-07T08:46:08;94250.25;;;3.24;100.00
67434;BME280;54305;47.950;6.572;2023-04-07T08:48:33;94249.91;;;3.18;100.00
67434;BME280;54305;47.950;6.572;2023-04-07T08:51:05;94262.75;;;3.18;100.00
67434;BME280;54305;47.950;6.572;2023-04-07T08:53:48;94255.97;;;3.28;100.00
67434;BME280;54305;47.950;6.572;2023-04-07T08:56:17;94262.97;;;3.37;100.00
67434;BME280;54305;47.950;6.572;2023-04-07T08:58:43;94262.66;;;3.19;100.00
67434;BME280;54305;47.950;6.572;2023-04-07T09:01:08;94260.16;;;3.29;100.00
67434;BME280;54305;47.950;6.572;2023-04-07T09:03:34;94257.13;;;3.24;100.00
67434;BME280;54305;47.950;6.572;2023-04-07T09:06:00;94270.94;;;3.23;100.00
67434;BME280;54305;47.950;6.572;2023-04-07T09:08:26;94260.88;;;3.20;100.00
67434;BME280;54305;47.950;6.572;2023-04-07T09:10:51;94267.50;;;3.33;100.00
67434;BME280;54305;47.950;6.572;2023-04-07T09:13:16;94257.91;;;3.46;100.00
67434;BME280;54305;47.950;6.572;2023-04-07T09:15:41;94267.25;;;3.58;100.00
67434;BME280;54305;47.950;6.572;2023-04-07T09:18:07;94267.63;;;3.43;100.00
67434;BME280;54305;47.950;6.572;2023-04-07T09:21:15;94265.75;;;3.45;100.00
67434;BME280;54305;47.950;6.572;2023-04-07T09:23:31;94266.19;;;3.50;100.00
67434;BME280;54305;47.950;6.572;2023-04-07T09:26:00;94273.25;;;3.37;100.00
67434;BME280;54305;47.950;6.572;2023-04-07T09:28:40;94276.09;;;3.23;100.00
67434;BME280;54305;47.950;6.572;2023-04-07T09:31:06;94273.06;;;3.18;100.00
67434;BME280;54305;47.950;6.572;2023-04-07T09:33:32;94271.59;;;3.36;100.00
67434;BME280;54305;47.950;6.572;2023-04-07T09:35:58;94282.44;;;3.08;100.00
67434;BME280;54305;47.950;6.572;2023-04-07T09:38:23;94283.78;;;3.34;100.00
67434;BME280;54305;47.950;6.572;2023-04-07T09:41:03;94274.13;;;3.58;100.00
67434;BME280;54305;47.950;6.572;2023-04-07T09:43:29;94285.56;;;3.76;100.00
67434;BME280;54305;47.950;6.572;2023-04-07T09:46:05;94277.56;;;3.90;100.00
67434;BME280;54305;47.950;6.572;2023-04-07T09:48:30;94275.53;;;3.93;100.00
67434;BME280;54305;47.950;6.572;2023-04-07T09:51:03;94276.81;;;3.99;100.00
67434;BME280;54305;47.950;6.572;2023-04-07T09:56:08;94279.84;;;4.04;100.00
67434;BME280;54305;47.950;6.572;2023-04-07T09:58:33;94277.94;;;4.06;100.00
67434;BME280;54305;47.950;6.572;2023-04-07T10:00:59;94277.78;;;3.87;100.00
67434;BME280;54305;47.950;6.572;2023-04-07T10:03:25;94277.44;;;4.12;100.00
67434;BME280;54305;47.950;6.572;2023-04-07T10:05:50;94273.97;;;4.02;100.00
67434;BME280;54305;47.950;6.572;2023-04-07T10:08:16;94276.31;;;4.05;100.00
67434;BME280;54305;47.950;6.572;2023-04-07T10:10:42;94279.19;;;3.91;100.00
67434;BME280;54305;47.950;6.572;2023-04-07T10:13:07;94276.06;;;4.08;100.00
67434;BME280;54305;47.950;6.572;2023-04-07T10:15:33;94282.94;;;4.18;100.00
67434;BME280;54305;47.950;6.572;2023-04-07T10:17:58;94266.91;;;4.15;100.00
67434;BME280;54305;47.950;6.572;2023-04-07T10:20:24;94279.47;;;4.29;100.00
67434;BME280;54305;47.950;6.572;2023-04-07T10:22:51;94279.66;;;4.16;100.00
67434;BME280;54305;47.950;6.572;2023-04-07T10:25:18;94277.59;;;4.31;100.00
67434;BME280;54305;47.950;6.572;2023-04-07T10:27:55;94274.31;;;4.29;100.00
67434;BME280;54305;47.950;6.572;2023-04-07T10:30:27;94283.09;;;4.47;100.00
67434;BME280;54305;47.950;6.572;2023-04-07T10:32:54;94285.00;;;4.65;100.00
67434;BME280;54305;47.950;6.572;2023-04-07T10:35:20;94283.94;;;4.68;100.00
67434;BME280;54305;47.950;6.572;2023-04-07T10:40:30;94284.41;;;4.82;100.00
67434;BME280;54305;47.950;6.572;2023-04-07T10:42:56;94285.97;;;4.64;100.00
67434;BME280;54305;47.950;6.572;2023-04-07T10:48:10;94288.09;;;4.59;100.00
67434;BME280;54305;47.950;6.572;2023-04-07T10:50:36;94286.19;;;4.61;100.00
67434;BME280;54305;47.950;6.572;2023-04-07T10:53:05;94284.19;;;4.65;100.00
67434;BME280;54305;47.950;6.572;2023-04-07T10:55:34;94285.44;;;4.70;100.00
67434;BME280;54305;47.950;6.572;2023-04-07T11:03:25;94289.66;;;5.01;100.00
67434;BME280;54305;47.950;6.572;2023-04-07T11:05:50;94288.34;;;5.07;100.00
67434;BME280;54305;47.950;6.572;2023-04-07T11:11:00;94288.53;;;5.24;100.00
67434;BME280;54305;47.950;6.572;2023-04-07T11:13:25;94295.94;;;5.48;100.00
67434;BME280;54305;47.950;6.572;2023-04-07T11:15:51;94289.25;;;5.36;100.00
67434;BME280;54305;47.950;6.572;2023-04-07T11:23:07;94299.41;;;4.68;100.00
67434;BME280;54305;47.950;6.572;2023-04-07T11:25:32;94294.34;;;4.87;100.00
67434;BME280;54305;47.950;6.572;2023-04-07T11:27:59;94293.22;;;5.10;100.00
67434;BME280;54305;47.950;6.572;2023-04-07T11:30:24;94293.41;;;5.18;100.00
67434;BME280;54305;47.950;6.572;2023-04-07T11:32:50;94284.34;;;5.33;100.00
67434;BME280;54305;47.950;6.572;2023-04-07T11:35:16;94290.78;;;5.08;100.00
67434;BME280;54305;47.950;6.572;2023-04-07T11:37:41;94295.94;;;5.08;100.00
67434;BME280;54305;47.950;6.572;2023-04-07T11:40:06;94295.97;;;4.88;100.00
67434;BME280;54305;47.950;6.572;2023-04-07T11:42:33;94298.69;;;5.16;100.00
67434;BME280;54305;47.950;6.572;2023-04-07T11:44:58;94296.28;;;5.24;100.00
67434;BME280;54305;47.950;6.572;2023-04-07T11:47:37;94291.94;;;5.25;100.00
67434;BME280;54305;47.950;6.572;2023-04-07T11:50:02;94295.22;;;5.36;100.00
67434;BME280;54305;47.950;6.572;2023-04-07T11:52:27;94301.22;;;5.37;100.00
67434;BME280;54305;47.950;6.572;2023-04-07T11:54:53;94298.94;;;5.53;100.00
67434;BME280;54305;47.950;6.572;2023-04-07T11:57:25;94302.84;;;5.38;100.00
67434;BME280;54305;47.950;6.572;2023-04-07T12:00:04;94300.19;;;5.68;100.00
67434;BME280;54305;47.950;6.572;2023-04-07T12:02:32;94306.63;;;5.34;100.00
67434;BME280;54305;47.950;6.572;2023-04-07T12:04:58;94302.66;;;5.60;100.00
67434;BME280;54305;47.950;6.572;2023-04-07T12:07:23;94306.81;;;5.42;100.00
67434;BME280;54305;47.950;6.572;2023-04-07T12:09:48;94299.69;;;5.74;100.00
67434;BME280;54305;47.950;6.572;2023-04-07T12:12:14;94304.09;;;6.21;100.00
67434;BME280;54305;47.950;6.572;2023-04-07T12:14:48;94304.38;;;6.18;100.00
67434;BME280;54305;47.950;6.572;2023-04-07T12:17:24;94298.94;;;6.02;100.00
67434;BME280;54305;47.950;6.572;2023-04-07T12:19:50;94302.75;;;6.26;100.00
67434;BME280;54305;47.950;6.572;2023-04-07T12:22:15;94304.53;;;6.16;100.00
67434;BME280;54305;47.950;6.572;2023-04-07T12:24:41;94296.75;;;6.45;100.00
67434;BME280;54305;47.950;6.572;2023-04-07T12:27:06;94296.31;;;6.68;100.00
67434;BME280;54305;47.950;6.572;2023-04-07T12:29:32;94303.25;;;6.68;100.00
67434;BME280;54305;47.950;6.572;2023-04-07T12:31:57;94306.50;;;6.89;100.00
67434;BME280;54305;47.950;6.572;2023-04-07T12:34:23;94300.16;;;7.10;100.00
67434;BME280;54305;47.950;6.572;2023-04-07T12:36:48;94304.72;;;7.26;100.00
67434;BME280;54305;47.950;6.572;2023-04-07T12:39:14;94304.38;;;7.48;100.00
67434;BME280;54305;47.950;6.572;2023-04-07T12:41:39;94305.16;;;7.58;100.00
67434;BME280;54305;47.950;6.572;2023-04-07T12:44:05;94306.84;;;7.49;100.00
67434;BME280;54305;47.950;6.572;2023-04-07T12:46:30;94299.00;;;7.59;100.00
67434;BME280;54305;47.950;6.572;2023-04-07T12:48:55;94303.13;;;7.79;100.00
67434;BME280;54305;47.950;6.572;2023-04-07T12:51:21;94302.00;;;7.81;100.00
67434;BME280;54305;47.950;6.572;2023-04-07T12:53:46;94296.78;;;7.91;100.00
67434;BME280;54305;47.950;6.572;2023-04-07T12:56:12;94296.84;;;7.99;100.00
67434;BME280;54305;47.950;6.572;2023-04-07T12:58:37;94292.28;;;8.10;100.00
67434;BME280;54305;47.950;6.572;2023-04-07T13:01:03;94295.22;;;7.98;100.00
67434;BME280;54305;47.950;6.572;2023-04-07T13:03:29;94296.19;;;7.97;100.00
67434;BME280;54305;47.950;6.572;2023-04-07T13:05:54;94297.97;;;8.14;100.00
67434;BME280;54305;47.950;6.572;2023-04-07T13:08:19;94292.63;;;8.15;100.00
67434;BME280;54305;47.950;6.572;2023-04-07T13:10:45;94294.25;;;7.99;100.00
67434;BME280;54305;47.950;6.572;2023-04-07T13:13:10;94296.47;;;7.94;100.00
67434;BME280;54305;47.950;6.572;2023-04-07T13:15:36;94301.09;;;7.46;100.00
67434;BME280;54305;47.950;6.572;2023-04-07T13:18:01;94310.34;;;7.58;100.00
67434;BME280;54305;47.950;6.572;2023-04-07T13:20:26;94305.34;;;7.74;100.00
67434;BME280;54305;47.950;6.572;2023-04-07T13:22:52;94300.63;;;7.87;100.00
67434;BME280;54305;47.950;6.572;2023-04-07T13:25:17;94303.44;;;7.76;100.00